Time;durP1;ratioP1;P1;durP2;ratioP2;P2;SDS_P1;SDS_P2;PMS_P1;PMS_P2;Temp;Humidity;BMP_temperature;BMP_pressure;BME280_temperature;BME280_humidity;BME280_pressure;Samples;Min_cycle;Max_cycle;Signal;HPM_P1;HPM_P2
2023/12/24 00:00:13;;;;;;;7.45;3.60;;;;;;;0.43;100.00;99789.72;7399192;19;20028;-68
2023/12/24 00:02:41;;;;;;;5.90;3.70;;;;;;;0.44;100.00;99796.59;7398024;19;20014;-69
2023/12/24 00:05:10;;;;;;;9.95;6.88;;;;;;;0.44;100.00;99797.50;7397383;19;20028;-68
2023/12/24 00:07:38;;;;;;;6.90;4.90;;;;;;;0.46;100.00;99797.50;7398120;19;20003;-67
2023/12/24 00:10:08;;;;;;;7.43;4.40;;;;;;;0.46;100.00;99813.81;7398354;19;20011;-68
2023/12/24 00:12:41;;;;;;;8.20;5.03;;;;;;;0.47;100.00;99812.13;7397758;19;20027;-67
2023/12/24 00:15:10;;;;;;;7.05;4.53;;;;;;;0.49;100.00;99805.22;7395848;19;20066;-66
2023/12/24 00:17:39;;;;;;;7.60;4.38;;;;;;;0.51;100.00;99793.19;7397711;19;20491;-66
2023/12/24 00:20:08;;;;;;;9.85;5.25;;;;;;;0.53;100.00;99800.94;7396065;19;20477;-66
2023/12/24 00:22:37;;;;;;;14.35;8.80;;;;;;;0.56;100.00;99800.97;7395899;19;20021;-67
2023/12/24 00:25:07;;;;;;;8.13;6.35;;;;;;;0.58;100.00;99804.41;7397034;19;20020;-66
2023/12/24 00:27:44;;;;;;;11.23;7.88;;;;;;;0.59;100.00;99790.66;7397382;19;20002;-67
2023/12/24 00:30:14;;;;;;;13.63;7.05;;;;;;;0.60;100.00;99790.66;7399387;19;20014;-75
2023/12/24 00:32:43;;;;;;;8.93;4.90;;;;;;;0.62;100.00;99795.81;7396069;19;20074;-70
2023/12/24 00:35:13;;;;;;;9.43;4.72;;;;;;;0.62;100.00;99793.22;7397081;19;20074;-69
2023/12/24 00:37:42;;;;;;;12.57;5.30;;;;;;;0.62;100.00;99791.53;7397065;19;20497;-69
2023/12/24 00:40:11;;;;;;;17.33;11.05;;;;;;;0.65;100.00;99782.94;7397262;19;20014;-69
2023/12/24 00:42:41;;;;;;;17.50;10.98;;;;;;;0.65;100.00;99786.34;7394944;19;20024;-69
2023/12/24 00:45:13;;;;;;;8.45;5.80;;;;;;;0.66;100.00;99792.41;7395238;19;20014;-69
2023/12/24 00:47:42;;;;;;;10.10;5.05;;;;;;;0.65;100.00;99790.66;7396771;19;20086;-69
2023/12/24 00:50:12;;;;;;;6.93;3.97;;;;;;;0.66;100.00;99794.97;7396649;19;20010;-69
2023/12/24 00:52:40;;;;;;;5.65;3.00;;;;;;;0.65;100.00;99776.03;7396071;19;20014;-69
2023/12/24 00:55:10;;;;;;;3.38;1.85;;;;;;;0.65;100.00;99770.03;7396469;19;20364;-69
2023/12/24 00:57:39;;;;;;;3.60;1.83;;;;;;;0.61;100.00;99765.72;7395096;19;20022;-69
2023/12/24 01:00:08;;;;;;;3.03;1.60;;;;;;;0.58;100.00;99774.31;7395016;19;20017;-69
2023/12/24 01:02:39;;;;;;;3.20;1.98;;;;;;;0.57;100.00;99792.34;7396302;19;20423;-69
2023/12/24 01:05:08;;;;;;;3.20;1.80;;;;;;;0.58;100.00;99809.56;7393411;19;20018;-69
2023/12/24 01:07:37;;;;;;;3.35;2.05;;;;;;;0.58;100.00;99786.34;7394327;19;20011;-69
2023/12/24 01:10:06;;;;;;;4.13;2.90;;;;;;;0.58;100.00;99770.84;7396418;19;20018;-69
2023/12/24 01:12:37;;;;;;;5.40;3.10;;;;;;;0.58;100.00;99769.16;7395986;19;20018;-69
2023/12/24 01:15:06;;;;;;;2.67;1.98;;;;;;;0.58;100.00;99779.47;7396427;19;20041;-69
2023/12/24 01:17:34;;;;;;;2.90;1.90;;;;;;;0.58;100.00;99782.06;7396208;19;20007;-69
2023/12/24 01:20:14;;;;;;;3.58;1.70;;;;;;;0.58;100.00;99783.75;7395745;19;20374;-69
2023/12/24 01:22:43;;;;;;;2.25;1.38;;;;;;;0.60;100.00;99782.06;7394671;19;20018;-70
2023/12/24 01:25:12;;;;;;;5.50;2.00;;;;;;;0.59;100.00;99785.47;7395053;19;20015;-69
2023/12/24 01:27:40;;;;;;;2.63;1.98;;;;;;;0.59;100.00;99768.25;7395823;19;20025;-70
2023/12/24 01:30:10;;;;;;;4.18;1.60;;;;;;;0.59;100.00;99770.84;7395901;19;20074;-69
2023/12/24 01:32:39;;;;;;;2.63;1.73;;;;;;;0.59;100.00;99780.31;7393734;19;20011;-69
2023/12/24 01:35:10;;;;;;;2.35;1.10;;;;;;;0.59;100.00;99786.34;7395740;19;20023;-69
2023/12/24 01:37:39;;;;;;;3.58;1.42;;;;;;;0.60;100.00;99790.66;7396087;19;20216;-69
2023/12/24 01:40:09;;;;;;;5.00;1.83;;;;;;;0.61;100.00;99781.19;7395168;19;20379;-70
2023/12/24 01:42:37;;;;;;;3.38;1.65;;;;;;;0.62;100.00;99755.38;7395072;19;20014;-69
2023/12/24 01:45:06;;;;;;;4.18;1.70;;;;;;;0.63;100.00;99766.56;7395022;19;20011;-69
2023/12/24 01:47:42;;;;;;;2.83;1.55;;;;;;;0.63;100.00;99767.44;7393709;19;20010;-69
2023/12/24 01:50:14;;;;;;;2.85;1.70;;;;;;;0.62;100.00;99770.88;7395270;19;20019;-69
2023/12/24 01:52:44;;;;;;;4.68;1.95;;;;;;;0.63;100.00;99776.88;7396414;19;20014;-70
2023/12/24 01:55:13;;;;;;;4.40;2.20;;;;;;;0.64;100.00;99769.16;7395084;19;20019;-70
2023/12/24 01:57:41;;;;;;;3.97;2.53;;;;;;;0.66;100.00;99771.75;7394649;19;20085;-70
2023/12/24 02:00:11;;;;;;;3.95;1.70;;;;;;;0.68;100.00;99764.00;7395102;19;20015;-70
2023/12/24 02:02:41;;;;;;;3.58;1.73;;;;;;;0.70;100.00;99762.31;7395068;19;20022;-70
2023/12/24 02:05:08;;;;;;;4.35;1.50;;;;;;;0.70;100.00;99751.97;7392891;19;20028;-70
2023/12/24 02:07:42;;;;;;;3.22;1.80;;;;;;;0.71;100.00;99754.56;7394854;19;20033;-69
2023/12/24 02:10:11;;;;;;;2.90;1.60;;;;;;;0.72;100.00;99755.41;7395154;19;20089;-69
2023/12/24 02:12:40;;;;;;;3.72;1.80;;;;;;;0.72;100.00;99753.69;7394187;19;20484;-70
2023/12/24 02:15:09;;;;;;;4.45;1.95;;;;;;;0.73;100.00;99754.53;7394779;19;20083;-69
2023/12/24 02:17:38;;;;;;;3.17;1.90;;;;;;;0.73;100.00;99755.41;7398832;19;20082;-70
2023/12/24 02:20:07;;;;;;;2.97;1.77;;;;;;;0.77;100.00;99743.34;7401709;19;20074;-70
2023/12/24 02:22:39;;;;;;;5.25;2.10;;;;;;;0.77;100.00;99739.06;7399839;19;20541;-70
2023/12/24 02:25:08;;;;;;;4.55;2.03;;;;;;;0.78;100.00;99740.81;7401845;19;20028;-70
2023/12/24 02:27:45;;;;;;;4.20;2.00;;;;;;;0.79;100.00;99733.91;7398663;19;20361;-69
2023/12/24 02:30:20;;;;;;;3.75;1.80;;;;;;;0.78;100.00;99725.31;7399339;19;20066;-69
2023/12/24 02:32:53;;;;;;;1.80;1.40;;;;;;;0.78;100.00;99725.31;7401218;19;20010;-69
2023/12/24 02:35:23;;;;;;;2.92;1.55;;;;;;;0.77;100.00;99722.69;7401583;19;20014;-69
2023/12/24 02:37:54;;;;;;;2.60;1.80;;;;;;;0.76;100.00;99716.69;7401045;19;20014;-69
2023/12/24 02:40:20;;;;;;;4.13;1.60;;;;;;;0.75;100.00;99720.13;7401495;19;20014;-69
2023/12/24 02:42:48;;;;;;;7.72;2.15;;;;;;;0.75;100.00;99732.19;7400208;19;20421;-69
2023/12/24 02:45:17;;;;;;;2.88;1.60;;;;;;;0.74;100.00;99730.47;7400710;19;20070;-69
2023/12/24 02:47:45;;;;;;;2.85;1.95;;;;;;;0.76;100.00;99726.16;7401139;19;20066;-69
2023/12/24 02:50:16;;;;;;;2.53;1.50;;;;;;;0.77;100.00;99713.25;7401099;19;20027;-69
2023/12/24 02:52:44;;;;;;;2.15;1.50;;;;;;;0.77;100.00;99712.38;7400003;19;20031;-69
2023/12/24 02:55:15;;;;;;;1.90;1.20;;;;;;;0.77;100.00;99714.97;7400863;19;20021;-69
2023/12/24 02:57:44;;;;;;;1.65;1.20;;;;;;;0.77;100.00;99702.94;7401195;19;20031;-69
2023/12/24 03:00:13;;;;;;;2.47;1.60;;;;;;;0.78;100.00;99706.34;7400359;19;20422;-69
2023/12/24 03:02:42;;;;;;;2.00;1.30;;;;;;;0.78;100.00;99709.81;7399559;19;20099;-69
2023/12/24 03:05:11;;;;;;;2.25;1.55;;;;;;;0.79;100.00;99708.94;7400307;19;20066;-69
2023/12/24 03:07:39;;;;;;;2.47;1.52;;;;;;;0.79;100.00;99685.69;7400200;19;20010;-69
2023/12/24 03:10:09;;;;;;;2.40;1.52;;;;;;;0.84;100.00;99682.28;7400135;19;20510;-69
2023/12/24 03:12:40;;;;;;;2.85;1.90;;;;;;;0.86;100.00;99680.53;7399412;19;20430;-68
2023/12/24 03:15:11;;;;;;;4.50;2.10;;;;;;;0.89;100.00;99681.41;7398119;19;20039;-68
2023/12/24 03:17:40;;;;;;;3.75;1.90;;;;;;;0.92;100.00;99672.78;7397496;19;20006;-68
2023/12/24 03:20:10;;;;;;;3.83;2.30;;;;;;;0.93;100.00;99659.88;7400086;19;20082;-68
2023/12/24 03:22:38;;;;;;;4.75;2.03;;;;;;;0.98;100.00;99641.81;7398328;19;20031;-69
2023/12/24 03:25:07;;;;;;;4.25;2.30;;;;;;;1.00;100.00;99646.97;7399968;19;20085;-69
2023/12/24 03:27:35;;;;;;;5.30;3.05;;;;;;;1.02;100.00;99640.94;7397610;19;20098;-68
2023/12/24 03:30:08;;;;;;;5.53;3.22;;;;;;;1.07;100.00;99646.97;7399381;19;20086;-68
2023/12/24 03:32:37;;;;;;;8.95;3.70;;;;;;;1.10;100.00;99638.34;7397711;19;20010;-68
2023/12/24 03:35:06;;;;;;;8.40;3.90;;;;;;;1.12;100.00;99632.31;7399420;19;20074;-69
2023/12/24 03:37:34;;;;;;;11.50;4.40;;;;;;;1.18;100.00;99638.38;7399090;19;20011;-69
2023/12/24 03:40:02;;;;;;;12.80;5.18;;;;;;;1.22;100.00;99632.31;7399467;19;20078;-69
2023/12/24 03:42:31;;;;;;;17.05;6.05;;;;;;;1.29;100.00;99628.88;7398564;19;20014;-69
2023/12/24 03:44:59;;;;;;;19.13;6.72;;;;;;;1.38;100.00;99613.34;7399314;19;20014;-70
2023/12/24 03:47:30;;;;;;;17.17;6.53;;;;;;;1.48;100.00;99618.47;7397057;19;20014;-70
2023/12/24 03:49:59;;;;;;;23.02;8.05;;;;;;;1.56;100.00;99622.75;7397368;19;20018;-70
2023/12/24 03:52:27;;;;;;;21.58;7.00;;;;;;;1.63;100.00;99616.72;7400812;19;20413;-68
2023/12/24 03:54:56;;;;;;;24.67;8.13;;;;;;;1.70;100.00;99612.38;7407066;19;20014;-68
2023/12/24 03:57:24;;;;;;;26.42;8.40;;;;;;;1.78;100.00;99612.34;7396757;19;20078;-68
2023/12/24 03:59:53;;;;;;;26.35;8.13;;;;;;;1.86;100.00;99613.19;7398585;19;20024;-68
2023/12/24 04:02:24;;;;;;;26.95;8.25;;;;;;;1.94;100.00;99613.16;7395944;19;20375;-68
2023/12/24 04:04:55;;;;;;;25.48;8.52;;;;;;;2.02;100.00;99615.69;7398990;19;20024;-69
2023/12/24 04:07:24;;;;;;;28.73;8.77;;;;;;;2.10;100.00;99601.00;7396334;19;20010;-69
2023/12/24 04:09:52;;;;;;;30.17;9.07;;;;;;;2.17;100.00;99610.44;7398130;19;20036;-69
2023/12/24 04:12:18;;;;;;;27.98;9.20;;;;;;;2.25;100.00;99592.25;7397644;19;20407;-69
2023/12/24 04:14:46;;;;;;;34.65;9.82;;;;;;;2.35;100.00;99603.41;7397869;19;20020;-69
2023/12/24 04:17:15;;;;;;;32.70;9.63;;;;;;;2.42;100.00;99594.75;7400087;19;20028;-69
2023/12/24 04:19:43;;;;;;;30.33;9.27;;;;;;;2.51;100.00;99599.00;7398643;19;20540;-69
2023/12/24 04:22:21;;;;;;;35.28;10.32;;;;;;;2.60;100.00;99601.53;7396495;19;20015;-69
2023/12/24 04:24:55;;;;;;;41.20;10.63;;;;;;;2.70;100.00;99603.16;7398326;19;20070;-69
2023/12/24 04:27:24;;;;;;;36.13;9.65;;;;;;;2.79;100.00;99589.28;7396209;19;20015;-69
2023/12/24 04:29:53;;;;;;;38.95;10.30;;;;;;;2.90;100.00;99591.78;7397711;19;20014;-69
2023/12/24 04:32:21;;;;;;;35.75;9.65;;;;;;;3.02;100.00;99591.69;7397346;19;20018;-71
2023/12/24 04:34:50;;;;;;;37.97;10.75;;;;;;;3.14;100.00;99585.50;7397433;19;20010;-70
2023/12/24 04:37:21;;;;;;;38.65;10.07;;;;;;;3.28;100.00;99584.53;7397521;19;20011;-70
2023/12/24 04:39:50;;;;;;;33.90;9.15;;;;;;;3.43;100.00;99584.34;7397285;19;20022;-69
2023/12/24 04:42:18;;;;;;;27.35;8.48;;;;;;;3.60;100.00;99589.34;7396797;19;20415;-70
2023/12/24 04:44:47;;;;;;;25.60;6.97;;;;;;;3.77;100.00;99577.88;7397218;19;20031;-70
2023/12/24 04:47:15;;;;;;;15.10;5.38;;;;;;;3.99;100.00;99584.53;7395314;19;20014;-69
2023/12/24 04:49:44;;;;;;;11.75;5.18;;;;;;;4.22;100.00;99575.56;7395061;19;20384;-70
2023/12/24 04:52:12;;;;;;;12.55;4.63;;;;;;;4.48;100.00;99572.56;7396889;19;20031;-70
2023/12/24 04:54:43;;;;;;;18.83;9.35;;;;;;;4.70;100.00;99564.44;7394842;19;20019;-68
2023/12/24 04:57:09;;;;;;;10.98;4.55;;;;;;;4.87;100.00;99567.59;7394893;19;20011;-69
2023/12/24 04:59:38;;;;;;;10.45;4.30;;;;;;;5.02;100.00;99571.69;7396759;19;20010;-69
2023/12/24 05:02:06;;;;;;;10.35;4.50;;;;;;;5.14;100.00;99575.78;7396241;19;20414;-69
2023/12/24 05:04:35;;;;;;;12.20;4.00;;;;;;;5.26;100.00;99572.13;7394896;19;20018;-69
2023/12/24 05:07:04;;;;;;;7.85;3.60;;;;;;;5.37;100.00;99569.31;7395161;19;20481;-69
2023/12/24 05:09:32;;;;;;;8.93;3.55;;;;;;;5.46;100.00;99573.47;7396042;19;20038;-69
2023/12/24 05:12:03;;;;;;;8.40;3.58;;;;;;;5.52;100.00;99571.63;7395093;19;20018;-69
2023/12/24 05:14:31;;;;;;;8.23;3.03;;;;;;;5.60;100.00;99571.47;7394722;19;20011;-69
2023/12/24 05:17:00;;;;;;;8.80;3.22;;;;;;;5.65;100.00;99571.38;7396184;19;20036;-70
2023/12/24 05:19:28;;;;;;;5.78;2.70;;;;;;;5.69;100.00;99571.28;7396073;19;20015;-69
2023/12/24 05:21:57;;;;;;;6.50;2.70;;;;;;;5.74;100.00;99571.19;7395870;19;20023;-69
2023/12/24 05:24:26;;;;;;;6.05;2.58;;;;;;;5.78;100.00;99572.84;7393737;19;20006;-69
2023/12/24 05:26:54;;;;;;;6.72;2.78;;;;;;;5.84;100.00;99582.28;7394712;19;20361;-69
2023/12/24 05:29:25;;;;;;;6.65;2.67;;;;;;;5.88;100.00;99583.91;7394209;19;20018;-69
2023/12/24 05:31:54;;;;;;;4.68;2.33;;;;;;;5.90;100.00;99587.31;7396136;19;20039;-69
2023/12/24 05:34:22;;;;;;;5.47;2.22;;;;;;;5.94;100.00;99586.41;7394075;19;20018;-69
2023/12/24 05:36:51;;;;;;;4.50;1.90;;;;;;;5.95;100.00;99582.91;7395686;19;20031;-68
2023/12/24 05:39:19;;;;;;;5.13;2.25;;;;;;;5.98;100.00;99590.66;7395167;19;20390;-69
2023/12/24 05:41:48;;;;;;;8.40;2.00;;;;;;;6.00;100.00;99583.69;7395592;19;20027;-69
2023/12/24 05:44:16;;;;;;;4.80;2.20;;;;;;;6.02;100.00;99589.72;7393526;19;20031;-68
2023/12/24 05:46:52;;;;;;;3.83;1.88;;;;;;;6.03;100.00;99587.97;7394849;19;20015;-68
2023/12/24 05:49:21;;;;;;;5.97;2.10;;;;;;;6.05;100.00;99586.19;7394803;19;20011;-68
2023/12/24 05:51:49;;;;;;;4.43;1.92;;;;;;;6.06;100.00;99597.47;7397640;19;20027;-69
2023/12/24 05:54:18;;;;;;;4.20;2.17;;;;;;;6.07;100.00;99587.00;7408313;19;20015;-68
2023/12/24 05:56:46;;;;;;;3.88;1.75;;;;;;;6.09;100.00;99586.97;7402997;19;20380;-68
2023/12/24 05:59:15;;;;;;;5.32;2.42;;;;;;;6.10;100.00;99594.75;7402717;19;20027;-68
2023/12/24 06:01:47;;;;;;;4.05;2.25;;;;;;;6.10;100.00;99586.94;7402786;19;20028;-68
2023/12/24 06:04:16;;;;;;;4.63;2.10;;;;;;;6.12;100.00;99597.34;7399049;19;20027;-67
2023/12/24 06:06:44;;;;;;;5.78;2.40;;;;;;;6.13;100.00;99604.25;7401615;19;20035;-68
2023/12/24 06:09:13;;;;;;;5.82;2.20;;;;;;;6.13;100.00;99599.03;7399036;19;20015;-67
2023/12/24 06:11:41;;;;;;;3.17;1.83;;;;;;;6.15;100.00;99602.47;7402121;19;20029;-67
2023/12/24 06:14:09;;;;;;;4.50;1.88;;;;;;;6.16;100.00;99602.44;7399830;19;20031;-68
2023/12/24 06:16:38;;;;;;;3.50;1.63;;;;;;;6.17;100.00;99598.09;7398905;19;20010;-68
2023/12/24 06:19:09;;;;;;;3.70;1.90;;;;;;;6.17;100.00;99593.72;7402088;19;20112;-66
2023/12/24 06:21:37;;;;;;;3.47;1.70;;;;;;;6.21;100.00;99594.53;7402305;19;20011;-67
2023/12/24 06:24:07;;;;;;;3.72;1.90;;;;;;;6.25;100.00;99590.09;7398628;19;20031;-67
2023/12/24 06:26:36;;;;;;;4.22;1.60;;;;;;;6.22;100.00;99593.63;7401167;19;20035;-67
2023/12/24 06:29:04;;;;;;;3.08;1.50;;;;;;;6.20;100.00;99590.19;7398387;19;20493;-67
2023/12/24 06:31:33;;;;;;;2.70;1.55;;;;;;;6.24;100.00;99589.22;7401528;19;20019;-66
2023/12/24 06:34:01;;;;;;;4.10;2.17;;;;;;;6.20;100.00;99603.22;7398662;19;20019;-66
2023/12/24 06:36:32;;;;;;;3.92;1.88;;;;;;;6.18;100.00;99594.59;7401073;19;20024;-67
2023/12/24 06:39:01;;;;;;;4.55;2.25;;;;;;;6.18;100.00;99592.00;7401638;19;20074;-66
2023/12/24 06:41:29;;;;;;;4.18;2.30;;;;;;;6.17;100.00;99598.09;7401407;19;20380;-66
2023/12/24 06:43:57;;;;;;;4.05;2.20;;;;;;;6.19;100.00;99604.09;7398504;19;20011;-66
2023/12/24 06:46:26;;;;;;;4.50;2.38;;;;;;;6.21;100.00;99607.53;7398012;19;20506;-66
2023/12/24 06:48:55;;;;;;;4.10;2.33;;;;;;;6.20;100.00;99611.03;7401050;19;20006;-66
2023/12/24 06:51:23;;;;;;;5.80;2.45;;;;;;;6.18;100.00;99605.03;7398512;19;20015;-66
2023/12/24 06:53:54;;;;;;;5.47;2.90;;;;;;;6.19;100.00;99598.91;7398835;19;20461;-69
2023/12/24 06:56:22;;;;;;;3.85;2.17;;;;;;;6.19;100.00;99601.50;7400554;19;20015;-67
2023/12/24 06:58:51;;;;;;;4.53;2.67;;;;;;;6.20;100.00;99592.81;7400758;19;20035;-67
2023/12/24 07:01:18;;;;;;;5.28;2.55;;;;;;;6.22;100.00;99584.94;7398080;19;20025;-67
2023/12/24 07:03:46;;;;;;;5.95;2.78;;;;;;;6.23;100.00;99579.72;7398732;19;20011;-67
2023/12/24 07:06:14;;;;;;;8.45;3.10;;;;;;;6.24;100.00;99578.81;7400057;19;20508;-67
2023/12/24 07:08:43;;;;;;;6.40;3.00;;;;;;;6.25;100.00;99587.50;7397665;19;20035;-67
2023/12/24 07:11:14;;;;;;;7.25;3.35;;;;;;;6.26;100.00;99586.63;7399963;19;20516;-67
2023/12/24 07:13:43;;;;;;;6.00;3.30;;;;;;;6.27;100.00;99583.09;7397271;19;20219;-67
2023/12/24 07:16:11;;;;;;;6.97;3.20;;;;;;;6.28;100.00;99585.69;7399709;19;20481;-67
2023/12/24 07:18:40;;;;;;;6.63;3.30;;;;;;;6.30;100.00;99593.47;7400001;19;20027;-67
2023/12/24 07:21:15;;;;;;;8.45;3.55;;;;;;;6.31;100.00;99609.06;7399543;19;20481;-67
2023/12/24 07:23:43;;;;;;;9.00;3.95;;;;;;;6.32;100.00;99595.13;7397677;19;20018;-67
2023/12/24 07:26:14;;;;;;;7.93;4.13;;;;;;;6.33;100.00;99596.84;7397488;19;20014;-67
2023/12/24 07:28:43;;;;;;;10.10;4.30;;;;;;;6.35;100.00;99586.41;7396983;19;20509;-67
2023/12/24 07:31:15;;;;;;;7.72;3.92;;;;;;;6.36;100.00;99586.34;7398023;19;20010;-69
2023/12/24 07:33:43;;;;;;;12.52;4.60;;;;;;;6.35;100.00;99576.81;7397074;19;20024;-69
2023/12/24 07:36:12;;;;;;;13.27;5.03;;;;;;;6.37;100.00;99576.81;7397604;19;20031;-70
2023/12/24 07:38:40;;;;;;;11.27;4.90;;;;;;;6.38;100.00;99582.88;7399414;19;20018;-69
2023/12/24 07:41:10;;;;;;;15.07;5.20;;;;;;;6.37;100.00;99582.03;7399491;19;20014;-69
2023/12/24 07:43:41;;;;;;;12.68;5.22;;;;;;;6.36;100.00;99583.75;7397404;19;20482;-69
2023/12/24 07:46:10;;;;;;;15.75;5.63;;;;;;;6.37;100.00;99576.81;7399166;19;20018;-67
2023/12/24 07:48:38;;;;;;;15.20;5.68;;;;;;;6.38;100.00;99577.66;7397954;19;20018;-69
2023/12/24 07:51:13;;;;;;;12.60;5.45;;;;;;;6.38;100.00;99582.88;7399568;19;20022;-69
2023/12/24 07:53:42;;;;;;;13.10;5.70;;;;;;;6.36;100.00;99575.94;7401300;19;20018;-68
2023/12/24 07:56:11;;;;;;;13.90;5.75;;;;;;;6.36;100.00;99570.72;7399162;19;20024;-66
2023/12/24 07:58:42;;;;;;;14.55;5.82;;;;;;;6.36;100.00;99570.72;7397270;19;20018;-69
2023/12/24 08:01:11;;;;;;;19.27;5.38;;;;;;;6.39;100.00;99574.16;7398936;19;20027;-69
2023/12/24 08:03:39;;;;;;;13.65;5.50;;;;;;;6.39;100.00;99558.53;7397273;19;20031;-69
2023/12/24 08:06:08;;;;;;;11.30;4.95;;;;;;;6.40;100.00;99566.31;7399389;19;20015;-70
2023/12/24 08:08:36;;;;;;;13.82;5.18;;;;;;;6.43;100.00;99573.19;7397854;19;20027;-69
2023/12/24 08:11:05;;;;;;;14.55;5.50;;;;;;;6.43;100.00;99575.78;7396704;19;20019;-70
2023/12/24 08:13:40;;;;;;;15.25;5.45;;;;;;;6.45;100.00;99568.81;7396442;19;20265;-68
2023/12/24 08:16:11;;;;;;;13.93;5.63;;;;;;;6.44;100.00;99570.53;7398247;19;20592;-69
2023/12/24 08:18:40;;;;;;;11.15;4.60;;;;;;;6.48;100.00;99566.13;7396921;19;20019;-66
2023/12/24 08:21:10;;;;;;;14.20;5.20;;;;;;;6.49;100.00;99563.47;7396496;19;20030;-66
2023/12/24 08:23:39;;;;;;;13.93;4.85;;;;;;;6.51;100.00;99564.31;7396088;19;20037;-69
2023/12/24 08:26:08;;;;;;;11.65;4.72;;;;;;;6.51;100.00;99559.09;7398156;19;20499;-69
2023/12/24 08:28:36;;;;;;;17.52;6.25;;;;;;;6.56;100.00;99561.59;7396194;19;20031;-67
2023/12/24 08:31:05;;;;;;;18.33;6.20;;;;;;;6.58;100.00;99564.16;7398165;19;20086;-68
2023/12/24 08:33:37;;;;;;;17.45;6.40;;;;;;;6.61;100.00;99570.16;7397482;19;20018;-70
2023/12/24 08:36:06;;;;;;;17.63;6.63;;;;;;;6.62;100.00;99571.88;7397912;19;20019;-71
2023/12/24 08:38:35;;;;;;;17.70;7.15;;;;;;;6.65;100.00;99566.56;7400749;19;20074;-70
2023/12/24 08:41:03;;;;;;;21.80;7.40;;;;;;;6.67;100.00;99559.59;7397867;19;20014;-71
2023/12/24 08:43:32;;;;;;;16.63;6.35;;;;;;;6.71;100.00;99568.19;7398129;19;20014;-71
2023/12/24 08:46:03;;;;;;;15.68;5.90;;;;;;;6.70;100.00;99566.47;7401574;19;20043;-71
2023/12/24 08:48:31;;;;;;;17.58;5.68;;;;;;;6.74;100.00;99568.09;7399225;19;20022;-70
2023/12/24 08:51:03;;;;;;;14.32;6.00;;;;;;;6.77;100.00;99564.56;7398730;19;20086;-69
2023/12/24 08:53:32;;;;;;;13.10;5.32;;;;;;;6.78;100.00;99554.09;7396587;19;20010;-69
2023/12/24 08:56:00;;;;;;;16.88;5.90;;;;;;;6.82;100.00;99565.28;7399298;19;20007;-71
2023/12/24 08:58:29;;;;;;;12.95;4.55;;;;;;;6.83;100.00;99564.41;7395874;19;20007;-66
2023/12/24 09:00:58;;;;;;;12.75;4.90;;;;;;;6.85;100.00;99560.03;7395804;19;20078;-66
2023/12/24 09:03:26;;;;;;;9.90;4.82;;;;;;;6.89;100.00;99556.44;7395955;19;20031;-68
2023/12/24 09:05:55;;;;;;;10.32;3.45;;;;;;;6.89;100.00;99564.25;7394081;19;20010;-67
2023/12/24 09:08:26;;;;;;;12.07;4.20;;;;;;;6.93;100.00;99565.03;7395811;19;20003;-68
2023/12/24 09:10:55;;;;;;;10.27;4.13;;;;;;;6.96;100.00;99562.34;7396630;19;20018;-70
2023/12/24 09:13:24;;;;;;;10.95;4.15;;;;;;;6.96;100.00;99563.22;7396713;19;20489;-71
2023/12/24 09:15:52;;;;;;;9.13;3.10;;;;;;;7.00;100.00;99559.63;7397350;19;20108;-71
2023/12/24 09:18:21;;;;;;;6.68;3.20;;;;;;;7.03;100.00;99560.41;7397693;19;20018;-70
2023/12/24 09:20:51;;;;;;;9.45;4.80;;;;;;;7.05;100.00;99562.13;7396499;19;20503;-69
2023/12/24 09:23:19;;;;;;;6.75;2.90;;;;;;;7.06;100.00;99565.56;7395673;19;20010;-68
2023/12/24 09:25:50;;;;;;;8.95;3.42;;;;;;;7.10;100.00;99564.59;7392587;19;20482;-71
2023/12/24 09:28:19;;;;;;;9.68;4.05;;;;;;;7.10;100.00;99549.81;7395055;19;20371;-72
2023/12/24 09:30:48;;;;;;;8.60;3.53;;;;;;;7.09;100.00;99550.69;7396267;19;20074;-73
2023/12/24 09:33:17;;;;;;;12.35;4.07;;;;;;;7.13;100.00;99554.09;7395252;19;20015;-71
2023/12/24 09:35:46;;;;;;;8.63;3.85;;;;;;;7.15;100.00;99560.97;7396868;19;20006;-72
2023/12/24 09:38:14;;;;;;;5.88;2.80;;;;;;;7.16;100.00;99567.03;7394366;19;20015;-68
2023/12/24 09:40:43;;;;;;;7.10;2.83;;;;;;;7.17;100.00;99553.09;7395063;19;20010;-71
2023/12/24 09:43:14;;;;;;;6.20;2.97;;;;;;;7.20;100.00;99563.44;7396932;19;20078;-70
2023/12/24 09:45:43;;;;;;;7.30;2.70;;;;;;;7.23;100.00;99558.16;7397527;19;20038;-71
2023/12/24 09:48:11;;;;;;;5.68;2.72;;;;;;;7.23;100.00;99555.53;7396429;19;20028;-71
2023/12/24 09:50:40;;;;;;;4.90;2.50;;;;;;;7.26;100.00;99554.59;7395673;19;20368;-71
2023/12/24 09:53:09;;;;;;;7.28;2.90;;;;;;;7.28;100.00;99548.44;7395372;19;20042;-71
2023/12/24 09:55:39;;;;;;;4.13;3.05;;;;;;;7.30;100.00;99551.00;7394833;19;20015;-72
2023/12/24 09:58:08;;;;;;;7.53;4.07;;;;;;;7.32;100.00;99549.22;7395346;19;20021;-71
2023/12/24 10:00:39;;;;;;;3.80;2.30;;;;;;;7.33;100.00;99535.28;7395903;19;20013;-69
2023/12/24 10:03:07;;;;;;;4.53;2.90;;;;;;;7.34;100.00;99540.44;7394330;19;20014;-67
2023/12/24 10:05:36;;;;;;;7.45;4.68;;;;;;;7.36;100.00;99527.34;7396358;19;20014;-66
2023/12/24 10:08:06;;;;;;;5.63;3.60;;;;;;;7.39;100.00;99526.41;7399954;19;20011;-72
2023/12/24 10:10:35;;;;;;;4.03;2.80;;;;;;;7.40;100.00;99536.81;7399095;19;20011;-71
2023/12/24 10:13:07;;;;;;;3.08;2.40;;;;;;;7.41;100.00;99524.63;7399119;19;20038;-71
2023/12/24 10:15:39;;;;;;;2.38;1.60;;;;;;;7.42;100.00;99526.31;7395202;19;20035;-72
2023/12/24 10:18:21;;;;;;;4.13;3.03;;;;;;;7.45;100.00;99521.03;7397549;19;20038;-70
2023/12/24 10:20:50;;;;;;;5.40;1.92;;;;;;;7.46;100.00;99526.19;7396769;19;20423;-71
2023/12/24 10:23:22;;;;;;;4.68;2.40;;;;;;;7.47;100.00;99529.69;7395364;19;20011;-69
2023/12/24 10:26:03;;;;;;;2.75;1.33;;;;;;;7.47;100.00;99519.25;7399473;19;20090;-70
2023/12/24 10:28:33;;;;;;;2.30;1.63;;;;;;;7.48;100.00;99524.41;7402583;19;20003;-71
2023/12/24 10:31:11;;;;;;;4.63;1.70;;;;;;;7.50;100.00;99513.91;7413439;19;20006;-71
2023/12/24 10:33:41;;;;;;;4.13;2.13;;;;;;;7.52;100.00;99519.97;7405593;19;20010;-71
2023/12/24 10:36:11;;;;;;;3.67;2.00;;;;;;;7.52;100.00;99530.41;7400450;19;20015;-70
2023/12/24 10:38:40;;;;;;;2.47;1.60;;;;;;;7.55;100.00;99535.53;7402550;19;20343;-71
2023/12/24 10:41:09;;;;;;;2.42;1.63;;;;;;;7.56;100.00;99528.56;7403372;19;20030;-70
2023/12/24 10:43:37;;;;;;;1.88;1.60;;;;;;;7.57;100.00;99525.91;7400302;19;20021;-67
2023/12/24 10:46:06;;;;;;;3.95;1.77;;;;;;;7.58;100.00;99511.94;7402118;19;20348;-70
2023/12/24 10:48:38;;;;;;;5.80;2.30;;;;;;;7.60;100.00;99512.75;7401910;19;20031;-71
2023/12/24 10:51:06;;;;;;;6.05;4.00;;;;;;;7.62;100.00;99500.50;7400545;19;20027;-71
2023/12/24 10:53:42;;;;;;;5.10;2.67;;;;;;;7.63;100.00;99512.66;7401060;19;20031;-69
2023/12/24 10:56:17;;;;;;;5.60;2.50;;;;;;;7.64;100.00;99516.97;7399549;19;20026;-70
2023/12/24 10:58:53;;;;;;;6.68;2.60;;;;;;;7.68;100.00;99507.28;7400631;19;20312;-71
2023/12/24 11:01:22;;;;;;;8.93;3.00;;;;;;;7.67;100.00;99495.13;7401152;19;20011;-70
2023/12/24 11:03:53;;;;;;;5.55;2.42;;;;;;;7.70;100.00;99491.63;7398508;19;20037;-71
2023/12/24 11:06:49;;;;;;;6.00;2.63;;;;;;;7.72;100.00;99492.41;7401287;19;20014;-68
2023/12/24 11:09:48;;;;;;;5.22;2.03;;;;;;;7.73;100.00;99483.66;7400804;19;20034;-72
2023/12/24 11:12:35;;;;;;;5.70;1.95;;;;;;;7.75;100.00;99487.09;7402098;19;20078;-71
2023/12/24 11:15:04;;;;;;;6.38;2.13;;;;;;;7.76;100.00;99484.44;7398527;19;20032;-72
2023/12/24 11:17:51;;;;;;;4.68;1.70;;;;;;;7.76;100.00;99480.94;7398490;19;20018;-72
2023/12/24 11:20:46;;;;;;;5.22;2.05;;;;;;;7.77;100.00;99474.84;7400411;19;20013;-70
2023/12/24 11:23:16;;;;;;;5.85;1.98;;;;;;;7.80;100.00;99470.38;7401018;19;20019;-71
2023/12/24 11:25:47;;;;;;;5.65;1.85;;;;;;;7.79;100.00;99466.06;7397843;19;20010;-70
2023/12/24 11:28:16;;;;;;;3.63;1.92;;;;;;;7.86;100.00;99468.47;7399613;19;20070;-69
2023/12/24 11:31:06;;;;;;;6.32;1.40;;;;;;;7.87;100.00;99473.66;7398015;19;20019;-69
2023/12/24 11:33:54;;;;;;;5.18;1.50;;;;;;;7.91;100.00;99456.13;7397754;19;20011;-70
2023/12/24 11:36:27;;;;;;;2.95;1.25;;;;;;;7.92;100.00;99458.72;7397878;19;20010;-69
2023/12/24 11:38:59;;;;;;;1.90;1.00;;;;;;;7.94;100.00;99461.28;7397551;19;20006;-69
2023/12/24 11:41:29;;;;;;;3.10;1.10;;;;;;;7.98;100.00;99452.44;7397869;19;20034;-69
2023/12/24 11:43:58;;;;;;;4.88;1.10;;;;;;;8.02;100.00;99463.63;7399641;19;20038;-70